createdAt,value
2018-02-23T00:01:06.327Z,0.80
2018-02-23T00:03:34.606Z,0.80
2018-02-23T00:06:02.893Z,0.80
2018-02-23T00:08:30.391Z,0.80
2018-02-23T00:10:57.906Z,0.80
2018-02-23T00:13:26.167Z,0.70
2018-02-23T00:15:54.441Z,0.70
2018-02-23T00:18:22.698Z,0.80
2018-02-23T00:20:50.215Z,0.70
2018-02-23T00:23:17.710Z,0.70
2018-02-23T00:25:45.238Z,0.70
2018-02-23T00:28:12.730Z,0.60
2018-02-23T00:30:40.243Z,0.60
2018-02-23T00:33:07.794Z,0.60
2018-02-23T00:35:35.308Z,0.50
2018-02-23T00:38:02.798Z,0.50
2018-02-23T00:40:31.062Z,0.40
2018-02-23T00:42:58.569Z,0.40
2018-02-23T00:45:26.066Z,0.40
2018-02-23T00:47:53.566Z,0.40
2018-02-23T00:50:21.131Z,0.40
2018-02-23T00:52:48.642Z,0.40
2018-02-23T00:55:16.142Z,0.40
2018-02-23T00:57:43.706Z,0.30
2018-02-23T01:00:11.238Z,0.30
2018-02-23T01:02:38.739Z,0.20
2018-02-23T01:05:06.234Z,0.20
2018-02-23T01:07:33.739Z,0.20
2018-02-23T01:10:01.240Z,0.20
2018-02-23T01:12:28.746Z,0.20
2018-02-23T01:14:57.014Z,0.20
2018-02-23T01:17:25.296Z,0.20
2018-02-23T01:19:53.566Z,0.20
2018-02-23T01:22:21.845Z,0.10
2018-02-23T01:24:50.107Z,0.10
2018-02-23T01:27:17.618Z,0.10
2018-02-23T01:29:45.146Z,0.10
2018-02-23T01:32:13.422Z,0.10
2018-02-23T01:34:40.968Z,0.00
2018-02-23T01:37:09.230Z,0.10
2018-02-23T01:39:36.745Z,0.00
2018-02-23T01:42:04.269Z,0.00
2018-02-23T01:44:32.559Z,0.00
2018-02-23T01:47:00.058Z,0.00
2018-02-23T01:49:27.566Z,0.00
2018-02-23T01:51:55.826Z,0.00
2018-02-23T01:54:23.334Z,0.00
2018-02-23T01:56:50.829Z,0.00
2018-02-23T01:59:18.334Z,0.00
2018-02-23T02:01:45.852Z,0.00
2018-02-23T02:04:13.374Z,0.00
2018-02-23T02:06:40.874Z,0.00
2018-02-23T02:09:08.393Z,0.00
2018-02-23T02:11:35.887Z,0.00
2018-02-23T02:14:03.410Z,0.00
2018-02-23T02:16:30.910Z,0.00
2018-02-23T02:18:58.439Z,0.00
2018-02-23T02:21:25.926Z,0.00
2018-02-23T02:23:54.195Z,0.00
2018-02-23T02:26:21.721Z,-0.10
2018-02-23T02:28:49.227Z,-0.10
2018-02-23T02:31:17.520Z,-0.10
2018-02-23T02:33:45.796Z,-0.10
2018-02-23T02:36:14.074Z,-0.20
2018-02-23T02:38:42.357Z,-0.20
2018-02-23T02:41:09.895Z,-0.20
2018-02-23T02:43:37.395Z,-0.30
2018-02-23T02:46:04.911Z,-0.30
2018-02-23T02:48:32.410Z,-0.30
2018-02-23T02:50:59.927Z,-0.30
2018-02-23T02:53:28.213Z,-0.30
2018-02-23T02:55:56.514Z,-0.30
2018-02-23T02:58:24.027Z,-0.30
2018-02-23T03:00:52.333Z,-0.30
2018-02-23T03:03:20.594Z,-0.40
2018-02-23T03:05:48.190Z,-0.40
2018-02-23T03:08:15.708Z,-0.40
2018-02-23T03:10:43.238Z,-0.40
2018-02-23T03:13:10.781Z,-0.40
2018-02-23T03:15:38.302Z,-0.40
2018-02-23T03:18:06.582Z,-0.40
2018-02-23T03:20:34.862Z,-0.50
2018-02-23T03:23:03.152Z,-0.50
2018-02-23T03:25:30.659Z,-0.50
2018-02-23T03:27:58.179Z,-0.60
2018-02-23T03:30:25.684Z,-0.60
2018-02-23T03:32:53.208Z,-0.60
2018-02-23T03:35:20.710Z,-0.60
2018-02-23T03:37:48.229Z,-0.60
2018-02-23T03:40:15.773Z,-0.60
2018-02-23T03:42:43.320Z,-0.60
2018-02-23T03:45:10.895Z,-0.60
2018-02-23T03:47:38.415Z,-0.60
2018-02-23T03:50:05.925Z,-0.60
2018-02-23T03:52:33.453Z,-0.60
2018-02-23T03:55:01.722Z,-0.60
2018-02-23T03:57:30.006Z,-0.60
2018-02-23T03:59:58.278Z,-0.70
2018-02-23T04:02:26.546Z,-0.60
2018-02-23T04:04:54.069Z,-0.70
2018-02-23T04:07:21.574Z,-0.60
2018-02-23T04:09:49.857Z,-0.60
2018-02-23T04:12:18.122Z,-0.60
2018-02-23T04:14:46.409Z,-0.60
2018-02-23T04:17:14.680Z,-0.70
2018-02-23T04:19:42.975Z,-0.70
2018-02-23T04:22:10.482Z,-0.70
2018-02-23T04:24:38.013Z,-0.70
2018-02-23T04:27:05.524Z,-0.70
2018-02-23T04:29:33.049Z,-0.70
2018-02-23T04:32:00.561Z,-0.70
2018-02-23T04:34:28.846Z,-0.70
2018-02-23T04:36:56.342Z,-0.70
2018-02-23T04:39:23.859Z,-0.70
2018-02-23T04:41:52.126Z,-0.70
2018-02-23T04:44:20.420Z,-0.80
2018-02-23T04:46:47.922Z,-0.80
2018-02-23T04:49:15.459Z,-0.70
2018-02-23T04:51:43.005Z,-0.80
2018-02-23T04:54:10.583Z,-0.80
2018-02-23T04:56:38.098Z,-0.80
2018-02-23T04:59:06.363Z,-0.80
2018-02-23T05:01:33.875Z,-0.80
2018-02-23T05:04:01.383Z,-0.80
2018-02-23T05:06:29.674Z,-0.80
2018-02-23T05:08:57.950Z,-0.80
2018-02-23T05:11:26.232Z,-0.80
2018-02-23T05:13:54.502Z,-0.80
2018-02-23T05:16:22.785Z,-0.90
2018-02-23T05:18:51.063Z,-0.80
2018-02-23T05:21:19.344Z,-0.90
2018-02-23T05:23:47.611Z,-0.80
2018-02-23T05:26:15.899Z,-0.80
2018-02-23T05:28:43.470Z,-0.90
2018-02-23T05:31:11.018Z,-0.80
2018-02-23T05:33:38.538Z,-0.80
2018-02-23T05:36:06.146Z,-0.80
2018-02-23T05:38:33.706Z,-0.80
2018-02-23T05:41:01.219Z,-0.80
2018-02-23T05:43:28.813Z,-0.80
2018-02-23T05:45:56.335Z,-0.80
2018-02-23T05:48:23.851Z,-0.90
2018-02-23T05:50:51.380Z,-0.90
2018-02-23T05:53:19.663Z,-0.90
2018-02-23T05:55:47.929Z,-0.80
2018-02-23T05:58:16.219Z,-0.80
2018-02-23T06:00:44.493Z,-0.90
2018-02-23T06:03:12.855Z,-0.90
2018-02-23T06:05:40.349Z,-0.90
2018-02-23T06:08:07.883Z,-0.90
2018-02-23T06:10:36.161Z,-0.90
2018-02-23T06:13:04.562Z,-0.90
2018-02-23T06:15:37.770Z,-0.90
2018-02-23T06:18:08.198Z,-0.90
2018-02-23T06:20:35.699Z,-0.90
2018-02-23T06:23:03.224Z,-0.90
2018-02-23T06:25:30.718Z,-0.90
2018-02-23T06:27:58.229Z,-0.90
2018-02-23T06:30:25.738Z,-0.90
2018-02-23T06:32:53.245Z,-1.00
2018-02-23T06:35:20.794Z,-0.90
2018-02-23T06:37:48.298Z,-0.90
2018-02-23T06:40:15.828Z,-0.90
2018-02-23T06:42:43.325Z,-0.90
2018-02-23T06:45:10.844Z,-0.90
2018-02-23T06:47:38.345Z,-0.90
2018-02-23T06:50:05.860Z,-0.80
2018-02-23T06:52:33.365Z,-0.90
2018-02-23T06:55:00.983Z,-0.90
2018-02-23T06:57:28.484Z,-0.90
2018-02-23T06:59:56.766Z,-0.80
2018-02-23T07:02:24.275Z,-0.90
2018-02-23T07:04:51.806Z,-0.80
2018-02-23T07:07:20.078Z,-0.80
2018-02-23T07:09:48.396Z,-0.80
2018-02-23T07:12:15.898Z,-0.80
2018-02-23T07:14:43.423Z,-0.80
2018-02-23T07:17:10.937Z,-0.80
2018-02-23T07:19:39.217Z,-0.80
2018-02-23T07:22:07.504Z,-0.70
2018-02-23T07:24:35.007Z,-0.70
2018-02-23T07:27:02.535Z,-0.70
2018-02-23T07:29:30.086Z,-0.70
2018-02-23T07:31:57.603Z,-0.70
2018-02-23T07:34:25.112Z,-0.70
2018-02-23T07:36:52.623Z,-0.60
2018-02-23T07:39:20.126Z,-0.60
2018-02-23T07:41:47.642Z,-0.60
2018-02-23T07:44:15.147Z,-0.60
2018-02-23T07:46:42.674Z,-0.50
2018-02-23T07:49:10.934Z,-0.40
2018-02-23T07:51:38.438Z,-0.50
2018-02-23T07:54:05.950Z,-0.40
2018-02-23T07:56:33.450Z,-0.40
2018-02-23T07:59:00.966Z,-0.40
2018-02-23T08:01:29.286Z,-0.30
2018-02-23T08:03:56.808Z,-0.20
2018-02-23T08:06:24.382Z,-0.20
2018-02-23T08:08:52.674Z,0.00
2018-02-23T08:11:20.170Z,-0.10
2018-02-23T08:13:47.666Z,0.00
2018-02-23T08:16:15.174Z,0.10
2018-02-23T08:18:42.724Z,0.10
2018-02-23T08:21:10.238Z,0.20
2018-02-23T11:45:41.932Z,4.20
2018-02-23T11:48:09.438Z,4.20
2018-02-23T11:50:36.926Z,4.10
2018-02-23T11:53:05.218Z,4.40
2018-02-23T11:55:32.738Z,4.40
2018-02-23T11:58:05.957Z,4.50
2018-02-23T12:00:34.230Z,4.70
2018-02-23T12:03:02.507Z,4.80
2018-02-23T12:05:30.806Z,5.00
2018-02-23T12:07:58.308Z,5.00
2018-02-23T12:10:25.819Z,4.80
2018-02-23T12:12:53.350Z,4.70
2018-02-23T12:15:21.622Z,4.90
2018-02-23T12:17:49.113Z,4.90
2018-02-23T12:20:16.621Z,4.90
2018-02-23T12:22:44.106Z,5.10
2018-02-23T12:25:12.406Z,5.10
2018-02-23T12:27:39.902Z,5.10
2018-02-23T12:30:07.403Z,5.20
2018-02-23T12:32:35.697Z,5.30
2018-02-23T12:35:03.187Z,5.20
2018-02-23T12:37:30.705Z,5.50
2018-02-23T12:39:58.190Z,5.40
2018-02-23T12:42:25.695Z,5.30
2018-02-23T12:44:53.183Z,5.40
2018-02-23T12:47:21.451Z,5.80
2018-02-23T12:49:49.711Z,5.80
2018-02-23T12:52:17.300Z,5.80
2018-02-23T12:54:45.549Z,5.70
2018-02-23T12:57:13.057Z,5.70
2018-02-23T12:59:40.551Z,5.70
2018-02-23T13:02:08.166Z,5.70
2018-02-23T13:04:35.658Z,5.90
2018-02-23T13:07:03.163Z,6.10
2018-02-23T13:09:31.426Z,6.10
2018-02-23T13:11:59.709Z,6.20
2018-02-23T13:14:33.724Z,6.30
2018-02-23T13:17:01.999Z,6.40
2018-02-23T13:19:30.256Z,6.60
2018-02-23T13:21:57.769Z,6.60
2018-02-23T13:24:25.261Z,6.40
2018-02-23T13:26:52.775Z,6.50
2018-02-23T13:29:20.286Z,6.80
2018-02-23T13:31:47.770Z,6.90
2018-02-23T13:34:16.040Z,6.80
2018-02-23T13:36:44.298Z,7.10
2018-02-23T13:39:11.802Z,7.10
2018-02-23T13:41:41.217Z,7.10
2018-02-23T13:44:08.726Z,7.20
2018-02-23T13:46:36.226Z,7.30
2018-02-23T13:49:03.731Z,7.30
2018-02-23T13:51:31.222Z,7.70
2018-02-23T13:54:05.126Z,8.20
2018-02-23T13:56:33.375Z,8.10
2018-02-23T13:59:00.896Z,8.10
2018-02-23T14:01:28.395Z,8.20
2018-02-23T14:03:55.883Z,8.60
2018-02-23T14:06:30.141Z,9.20
2018-02-23T14:08:57.639Z,9.20
2018-02-23T14:11:25.144Z,9.00
2018-02-23T14:13:52.643Z,9.10
2018-02-23T14:16:20.154Z,9.00
2018-02-23T14:18:47.645Z,9.40
2018-02-23T14:21:15.183Z,9.70
2018-02-23T14:23:42.674Z,9.20
2018-02-23T14:26:10.291Z,9.20
2018-02-23T14:28:37.788Z,9.00
2018-02-23T14:31:05.297Z,9.30
2018-02-23T14:33:33.560Z,9.40
2018-02-23T14:36:01.835Z,9.60
2018-02-23T14:38:30.094Z,9.40
2018-02-23T14:40:58.395Z,9.70
2018-02-23T14:43:26.687Z,9.60
2018-02-23T14:45:54.960Z,9.40
2018-02-23T14:48:34.267Z,9.30
2018-02-23T14:51:10.865Z,8.40
2018-02-23T14:53:38.409Z,7.60
2018-02-23T14:56:06.675Z,6.40
2018-02-23T14:58:34.180Z,6.40
2018-02-23T15:01:01.678Z,6.10
2018-02-23T15:03:29.183Z,6.00
2018-02-23T15:05:56.741Z,5.80
2018-02-23T15:08:25.010Z,5.70
2018-02-23T15:10:53.270Z,5.70
2018-02-23T15:13:20.772Z,5.60
2018-02-23T15:15:48.266Z,5.40
2018-02-23T15:18:15.774Z,5.40
2018-02-23T15:20:43.304Z,5.40
2018-02-23T15:23:10.827Z,5.30
2018-02-23T15:25:38.373Z,5.20
2018-02-23T15:28:05.889Z,5.20
2018-02-23T15:30:46.079Z,5.20
2018-02-23T15:33:13.593Z,5.20
2018-02-23T15:35:41.850Z,5.10
2018-02-23T15:38:09.367Z,5.10
2018-02-23T15:40:36.872Z,5.00
2018-02-23T15:43:04.391Z,5.00
2018-02-23T15:45:31.899Z,4.90
2018-02-23T15:48:05.117Z,4.90
2018-02-23T15:53:41.232Z,4.80
2018-02-23T15:56:08.727Z,4.80
2018-02-23T15:58:45.155Z,4.90
2018-02-23T16:01:12.659Z,4.90
2018-02-23T16:03:40.178Z,4.90
2018-02-23T16:06:07.686Z,4.80
2018-02-23T16:08:35.178Z,4.80
2018-02-23T16:11:02.718Z,4.70
2018-02-23T16:13:30.972Z,4.60
2018-02-23T16:15:58.492Z,4.60
2018-02-23T16:18:26.768Z,4.60
2018-02-23T16:20:54.305Z,4.60
2018-02-23T16:23:21.811Z,4.50
2018-02-23T16:25:49.341Z,4.50
2018-02-23T16:28:16.837Z,4.60
2018-02-23T16:30:44.351Z,4.50
2018-02-23T16:33:11.861Z,4.50
2018-02-23T16:35:39.393Z,4.50
2018-02-23T16:38:06.875Z,4.40
2018-02-23T16:40:34.551Z,4.40
2018-02-23T16:43:02.945Z,4.20
2018-02-23T16:45:31.238Z,4.10
2018-02-23T16:47:58.751Z,4.10
2018-02-23T16:50:26.258Z,4.10
2018-02-23T16:52:53.841Z,4.00
2018-02-23T16:55:21.352Z,4.00
2018-02-23T16:57:49.635Z,3.90
2018-02-23T17:00:17.896Z,3.80
2018-02-23T17:02:47.113Z,3.80
2018-02-23T17:05:15.387Z,3.70
2018-02-23T17:07:43.667Z,3.70
2018-02-23T17:10:11.935Z,3.60
2018-02-23T17:12:39.453Z,3.60
2018-02-23T17:15:06.980Z,3.60
2018-02-23T17:17:34.760Z,3.50
2018-02-23T17:20:02.258Z,3.60
2018-02-23T17:22:29.762Z,3.50
2018-02-23T17:24:58.187Z,3.50
2018-02-23T17:27:25.750Z,3.50
2018-02-23T17:29:53.275Z,3.50
2018-02-23T17:32:20.803Z,3.40
2018-02-23T17:34:49.107Z,3.40
2018-02-23T17:37:17.363Z,3.40
2018-02-23T17:39:44.880Z,3.30
2018-02-23T17:42:12.370Z,3.30
2018-02-23T17:44:40.738Z,3.20
2018-02-23T17:47:09.019Z,3.20
2018-02-23T17:49:37.310Z,3.20
2018-02-23T17:52:04.821Z,3.10
2018-02-23T17:54:32.325Z,3.10
2018-02-23T17:57:00.579Z,3.00
2018-02-23T17:59:29.590Z,3.00
2018-02-23T18:01:57.846Z,3.00
2018-02-23T18:04:26.863Z,3.00
2018-02-23T18:06:55.124Z,3.00
2018-02-23T18:09:22.626Z,2.90
2018-02-23T18:11:50.146Z,3.00
2018-02-23T18:14:18.441Z,2.80
2018-02-23T18:16:46.699Z,2.80
2018-02-23T18:19:15.987Z,2.70
2018-02-23T18:21:44.986Z,2.70
2018-02-23T18:24:12.483Z,2.70
2018-02-23T18:26:39.998Z,2.70
2018-02-23T18:29:07.496Z,2.70
2018-02-23T18:31:35.036Z,2.70
2018-02-23T18:34:03.297Z,2.70
2018-02-23T18:36:31.572Z,2.60
2018-02-23T18:38:59.101Z,2.60
2018-02-23T18:41:26.609Z,2.50
2018-02-23T18:43:54.921Z,2.50
2018-02-23T18:46:22.426Z,2.50
2018-02-23T18:48:49.922Z,2.50
2018-02-23T18:51:17.446Z,2.40
2018-02-23T18:53:45.706Z,2.40
2018-02-23T18:56:13.227Z,2.30
2018-02-23T18:58:40.723Z,2.30
2018-02-23T19:01:08.282Z,2.30
2018-02-23T19:03:35.800Z,2.20
2018-02-23T19:06:03.284Z,2.20
2018-02-23T19:08:30.885Z,2.10
2018-02-23T19:10:59.165Z,2.10
2018-02-23T19:13:27.435Z,2.10
2018-02-23T19:15:55.713Z,2.10
2018-02-23T19:18:23.986Z,2.10
2018-02-23T19:20:52.989Z,2.00
2018-02-23T19:23:51.206Z,2.00
2018-02-23T19:26:18.693Z,1.90
2018-02-23T19:28:46.190Z,1.90
2018-02-23T19:31:14.461Z,1.90
2018-02-23T19:33:42.714Z,1.80
2018-02-23T19:36:10.237Z,1.80
2018-02-23T19:38:37.723Z,1.80
2018-02-23T19:42:59.191Z,1.70
2018-02-23T19:45:27.475Z,1.70
2018-02-23T19:47:55.733Z,1.70
2018-02-23T19:50:23.264Z,1.70
2018-02-23T19:52:50.758Z,1.70
2018-02-23T19:55:20.034Z,1.60
2018-02-23T19:57:47.571Z,1.60
2018-02-23T20:00:15.058Z,1.60
2018-02-23T20:02:42.573Z,1.60
2018-02-23T20:05:10.070Z,1.60
2018-02-23T20:07:37.594Z,1.60
2018-02-23T20:10:05.094Z,1.60
2018-02-23T20:12:32.709Z,1.60
2018-02-23T20:15:00.270Z,1.60
2018-02-23T20:17:27.790Z,1.50
2018-02-23T20:19:56.059Z,1.50
2018-02-23T20:22:25.085Z,1.40
2018-02-23T20:24:53.342Z,1.40
2018-02-23T20:27:21.655Z,1.40
2018-02-23T20:29:49.167Z,1.40
2018-02-23T20:32:16.654Z,1.40
2018-02-23T20:34:44.190Z,1.40
2018-02-23T20:37:12.487Z,1.40
2018-02-23T20:39:40.009Z,1.30
2018-02-23T20:42:07.506Z,1.30
2018-02-23T20:44:35.049Z,1.30
2018-02-23T20:47:03.313Z,1.30
2018-02-23T20:49:30.814Z,1.30
2018-02-23T20:51:58.318Z,1.20
2018-02-23T20:54:25.817Z,1.20
2018-02-23T20:56:53.341Z,1.20
2018-02-23T20:59:20.857Z,1.20
2018-02-23T21:01:48.353Z,1.30
2018-02-23T21:04:15.874Z,1.20
2018-02-23T21:06:43.394Z,1.20
2018-02-23T21:09:10.934Z,1.10
2018-02-23T21:11:38.438Z,1.10
2018-02-23T21:14:05.941Z,1.10
2018-02-23T21:16:33.514Z,1.00
2018-02-23T21:19:01.018Z,1.00
2018-02-23T21:21:28.552Z,1.00
2018-02-23T21:23:56.813Z,1.10
2018-02-23T21:26:25.091Z,1.00
2018-02-23T21:28:52.586Z,1.00
2018-02-23T21:31:20.121Z,1.00
2018-02-23T21:33:48.378Z,0.90
2018-02-23T21:36:15.894Z,0.90
2018-02-23T21:38:43.389Z,0.90
2018-02-23T21:41:10.992Z,0.90
2018-02-23T21:43:38.498Z,0.90
2018-02-23T21:46:05.998Z,0.90
2018-02-23T21:48:34.278Z,0.80
2018-02-23T21:51:02.593Z,0.80
2018-02-23T21:53:30.117Z,0.80
2018-02-23T21:55:58.421Z,0.80
2018-02-23T21:58:27.024Z,0.70
2018-02-23T22:00:54.531Z,0.70
2018-02-23T22:03:22.805Z,0.70
2018-02-23T22:05:51.062Z,0.70
2018-02-23T22:08:18.576Z,0.60
2018-02-23T22:10:46.078Z,0.70
2018-02-23T22:13:13.602Z,0.60
2018-02-23T22:15:41.094Z,0.60
2018-02-23T22:18:09.398Z,0.50
2018-02-23T22:20:37.654Z,0.40
2018-02-23T22:23:05.167Z,0.40
2018-02-23T22:25:32.665Z,0.40
2018-02-23T22:28:00.938Z,0.40
2018-02-23T22:30:28.475Z,0.50
2018-02-23T22:32:55.982Z,0.50
2018-02-23T22:35:24.271Z,0.50
2018-02-23T22:37:51.795Z,0.50
2018-02-23T22:40:19.316Z,0.50
2018-02-23T22:42:46.821Z,0.50
2018-02-23T22:45:14.334Z,0.50
2018-02-23T22:47:41.854Z,0.40
2018-02-23T22:50:10.137Z,0.30
2018-02-23T22:52:37.637Z,0.30
2018-02-23T22:55:05.150Z,0.30
2018-02-23T22:57:33.419Z,0.20
2018-02-23T23:00:01.708Z,0.20
2018-02-23T23:02:29.994Z,0.20
2018-02-23T23:04:57.535Z,0.20
2018-02-23T23:07:25.802Z,0.20
2018-02-23T23:09:53.309Z,0.20
2018-02-23T23:12:20.832Z,0.10
2018-02-23T23:14:49.098Z,0.20
2018-02-23T23:17:16.670Z,0.10
2018-02-23T23:19:44.950Z,0.10
2018-02-23T23:22:13.252Z,0.10
2018-02-23T23:24:40.751Z,0.10
2018-02-23T23:27:08.266Z,0.10
2018-02-23T23:29:35.770Z,0.10
2018-02-23T23:32:03.286Z,0.00
2018-02-23T23:34:30.795Z,0.10
2018-02-23T23:36:58.315Z,0.00
2018-02-23T23:39:31.806Z,-0.10
2018-02-23T23:41:59.381Z,-0.10
2018-02-23T23:44:26.877Z,-0.10
2018-02-23T23:46:54.383Z,-0.10
2018-02-23T23:49:21.917Z,-0.10
2018-02-23T23:51:50.198Z,-0.10
2018-02-23T23:54:18.478Z,-0.10
2018-02-23T23:56:46.747Z,-0.10
2018-02-23T23:59:15.045Z,-0.10
